• Join FlightAware (Why Join?)
  • Login
  • US Flag 
10:14AM EDT


 

Airport Tracker/Info


-or-


 

Live Flight TrackerFlight Track Log ✈ LAK583 ✈ 22-Apr-2013 ✈ KTUL - KSAN

Flight Track Log - Related Links

Times and Time Zones

All times are in EDT time to prevent confusion due to time zone crossing. See the LAK583 flight status page for this flight to view local times or setup timezone preferences in your user account.

Time Position Orientation Groundspeed Altitude Reporting Facility
EDT Latitude Longitude Course Direction KTS MPH feet Rate Location/Type
12:30PM 36.1231 -95.9503 226° Southwest 236 272 4,400  Level Kansas City Center
12:31PM 36.1189 -95.9806 260° West 246 283 5,400 3,000 Climbing Kansas City Center
12:31PM 36.1136 -96.0394 264° West 254 292 7,400 2,520 Climbing Kansas City Center
12:32PM 36.1119 -96.0650 265° West 245 282 8,000 2,100 Climbing Kansas City Center
12:33PM 36.1092 -96.1514 268° West 249 287 10,600 2,520 Climbing Kansas City Center
12:34PM 36.1036 -96.2364 265° West 249 287 13,200 2,400 Climbing Kansas City Center
12:35PM 36.0868 -96.5530 253° West  Level FlightAware Approximate
12:35PM 36.0983 -96.3350 266° West 242 278 15,600  Level Kansas City Center
12:36PM 36.0917 -96.4175 264° West 241 277 17,400 1,560 Climbing Kansas City Center
12:37PM 36.0867 -96.5044 266° West 248 285 18,900 1,560 Climbing Kansas City Center
12:38PM 36.0814 -96.5953 266° West 259 298 20,700 1,680 Climbing Kansas City Center
12:39PM 36.0758 -96.6853 266° West 262 302 22,400 1,440 Climbing Kansas City Center
12:40PM 36.0639 -96.7828 261° West 267 307 23,800 1,320 Climbing Kansas City Center
12:41PM 36.0503 -96.8761 260° West 274 315 25,100 1,320 Climbing Kansas City Center
12:42PM 36.0392 -96.9706 262° West 278 320 26,600 1,260 Climbing Kansas City Center
12:43PM 36.0272 -97.0639 261° West 278 320 27,800 1,260 Climbing Kansas City Center
12:44PM 36.0117 -97.1778 260° West 281 323 29,200 1,320 Climbing Kansas City Center
12:45PM 36.0011 -97.2719 262° West 279 321 30,600 1,200 Climbing Kansas City Center
12:46PM 35.9883 -97.3628 260° West 274 315 31,700 960 Climbing Kansas City Center
12:47PM 35.9761 -97.4569 261° West 277 319 32,600 840 Climbing Kansas City Center
12:48PM 35.9644 -97.5492 261° West 275 316 33,500 960 Climbing Kansas City Center
12:49PM 35.9494 -97.6589 260° West 272 313 34,600 780 Climbing Kansas City Center
12:50PM 35.9364 -97.7511 260° West 273 314 35,200 720 Climbing Kansas City Center
12:52PM 35.9242 -97.8428 261° West 272 313 36,100 900 Climbing Kansas City Center
12:53PM 35.9117 -97.9322 260° West 269 310 37,100 840 Climbing Kansas City Center
12:54PM 35.8992 -98.0206 260° West 264 304 37,900 720 Climbing Kansas City Center
12:55PM 35.8869 -98.1117 261° West 256 295 38,600 480 Climbing Kansas City Center
12:56PM 35.8750 -98.1969 260° West 252 290 39,000 420 Climbing Kansas City Center
12:56PM 35.8642 -98.2714 260° West 264 304 39,400 480 Climbing Fort Worth Center
12:57PM 35.8531 -98.3558 261° West 259 298 39,900 300 Climbing Fort Worth Center
12:58PM 35.8397 -98.4453 260° West 259 298 40,000  Climbing Fort Worth Center
12:59PM 35.8264 -98.5397 260° West 264 304 40,000  Level Fort Worth Center
01:00PM 35.8131 -98.6394 261° West 285 328 40,000  Level Fort Worth Center
01:01PM 35.7975 -98.7392 259° West 293 337 40,000  Level Fort Worth Center
01:02PM 35.7839 -98.8411 261° West 304 350 40,000  Level Fort Worth Center
01:03PM 35.7681 -98.9458 259° West 309 356 40,000  Level Fort Worth Center
01:04PM 35.7542 -99.0531 261° West 314 361 40,000  Level Fort Worth Center
01:05PM 35.7358 -99.1703 259° West 319 367 40,000  Level Fort Worth Center
01:06PM 35.7175 -99.2772 258° West 319 367 40,000  Level Fort Worth Center
01:07PM 35.7033 -99.3817 261° West 319 367 40,000 180 Level Fort Worth Center
01:10PM 35.6672 -99.6336 260° West 311 358 40,700 240 Climbing Albuquerque Center
01:11PM 35.6514 -99.7353 259° West 303 349 41,000 120 Climbing Albuquerque Center
01:12PM 35.6364 -99.8403 260° West 307 353 41,000  Level Albuquerque Center
01:13PM 35.6197 -99.9453 259° West 311 358 41,000  Level Albuquerque Center
01:14PM 35.6028 -100.0531 259° West 317 365 41,000  Level Albuquerque Center
01:15PM 35.5856 -100.1617 259° West 320 368 41,000  Level Albuquerque Center
01:16PM 35.5650 -100.2931 259° West 324 373 41,000  Level Albuquerque Center
01:17PM 35.5464 -100.4025 258° West 326 375 41,000  Level Albuquerque Center
01:18PM 35.5297 -100.5139 260° West 328 377 41,000  Level Albuquerque Center
01:19PM 35.5111 -100.6256 258° West 330 380 41,000 -360 Level Albuquerque Center
01:20PM 35.4919 -100.7406 258° West 336 387 40,300 -480 Descending Albuquerque Center
01:21PM 35.4719 -100.8606 258° West 349 402 40,000 -180 Descending Albuquerque Center
01:22PM 35.4536 -100.9764 259° West 351 404 40,000  Level Albuquerque Center
01:23PM 35.4303 -101.1147 258° West 348 400 40,000  Level Albuquerque Center
01:24PM 35.4117 -101.2269 259° West 343 395 40,000  Level Albuquerque Center
01:25PM 35.3944 -101.3447 260° West 346 398 40,000  Level Albuquerque Center
01:26PM 35.3786 -101.4600 260° West 344 396 40,000  Level Albuquerque Center
01:27PM 35.3592 -101.5753 258° West 344 396 40,000  Level Albuquerque Center
01:28PM 35.3400 -101.6908 259° West 343 395 40,000  Level Albuquerque Center
01:29PM 35.3150 -101.8250 257° West 343 395 40,000  Level Albuquerque Center
01:31PM 35.2972 -101.9403 259° West 342 394 40,000  Level Albuquerque Center
01:32PM 35.2725 -102.0406 253° West 348 400 40,000  Level Albuquerque Center
01:33PM 35.2500 -102.1731 258° West 336 387 40,000  Level Albuquerque Center
01:34PM 35.2306 -102.2828 258° West 332 382 40,000  Level Albuquerque Center
01:35PM 35.2114 -102.3928 258° West 332 382 40,000  Level Albuquerque Center
01:36PM 35.1919 -102.5019 258° West 331 381 40,000  Level Albuquerque Center
01:37PM 35.1733 -102.6119 258° West 330 380 40,000  Level Albuquerque Center
01:38PM 35.1539 -102.7183 257° West 325 374 40,000  Level Albuquerque Center
01:39PM 35.1303 -102.8469 257° West 323 372 40,000  Level Albuquerque Center
01:40PM 35.1119 -102.9556 258° West 326 375 40,000  Level Albuquerque Center
01:41PM 35.0928 -103.0628 258° West 325 374 40,000  Level Albuquerque Center
01:42PM 35.0714 -103.1697 256° West 323 372 40,000  Level Albuquerque Center
01:43PM 35.0522 -103.2783 258° West 324 373 40,000  Level Albuquerque Center
01:44PM 35.0322 -103.3861 257° West 324 373 40,000  Level Albuquerque Center
01:45PM 35.0081 -103.5111 257° West 322 371 40,000  Level Albuquerque Center
01:46PM 34.9886 -103.6183 258° West 320 368 40,000  Level Albuquerque Center
01:47PM 34.9689 -103.7250 257° West 319 367 40,000  Level Albuquerque Center
01:48PM 34.9483 -103.8317 257° West 319 367 40,000  Level Albuquerque Center
01:49PM 34.9272 -103.9378 256° West 319 367 40,000  Level Albuquerque Center
01:51PM 34.8964 -104.0836 256° West  Level FlightAware Approximate
01:51PM 34.8858 -104.1536 256° West 322 371 40,000  Level Albuquerque Center
01:52PM 34.8639 -104.2614 256° West 323 372 40,000  Level Albuquerque Center
01:53PM 34.8436 -104.3689 257° West 323 372 40,000  Level Albuquerque Center
01:54PM 34.8194 -104.4925 257° West 319 367 40,000  Level Albuquerque Center
01:55PM 34.7986 -104.6003 257° West 322 371 40,000  Level Albuquerque Center
01:56PM 34.7769 -104.7094 256° West 326 375 40,000  Level Albuquerque Center
01:57PM 34.7594 -104.8161 259° West 322 371 40,000  Level Albuquerque Center
01:58PM 34.7433 -104.9253 260° West 323 372 40,000  Level Albuquerque Center
01:59PM 34.7267 -105.0336 259° West 323 372 40,000  Level Albuquerque Center
02:00PM 34.7094 -105.1414 259° West 321 369 40,000  Level Albuquerque Center
02:02PM 34.6903 -105.2681 260° West 322 371 40,000  Level Albuquerque Center
02:03PM 34.6736 -105.3761 259° West 322 371 40,000  Level Albuquerque Center
02:04PM 34.6556 -105.4831 258° West 321 369 40,000  Level Albuquerque Center
02:05PM 34.6381 -105.5931 259° West 326 375 40,000  Level Albuquerque Center
02:06PM 34.6203 -105.7017 259° West 325 374 40,000  Level Albuquerque Center
02:07PM 34.6022 -105.8119 259° West 328 377 40,000  Level Albuquerque Center
02:08PM 34.5839 -105.9219 259° West 330 380 40,000  Level Albuquerque Center
02:09PM 34.5656 -106.0311 259° West 328 377 40,000  Level Albuquerque Center
02:10PM 34.5456 -106.1594 259° West 329 379 40,000  Level Albuquerque Center
02:11PM 34.5267 -106.2689 258° West 329 379 40,000  Level Albuquerque Center
02:12PM 34.5081 -106.3772 258° West 329 379 40,000  Level Albuquerque Center
02:13PM 34.4889 -106.4853 258° West 328 377 40,000  Level Albuquerque Center
02:14PM 34.4714 -106.5922 259° West 325 374 40,000  Level Albuquerque Center
02:15PM 34.4536 -106.7003 259° West 325 374 40,000  Level Albuquerque Center
02:16PM 34.4342 -106.8100 258° West 330 380 40,000  Level Albuquerque Center
02:17PM 34.4158 -106.9222 259° West 337 388 40,000  Level Albuquerque Center
02:18PM 34.3967 -107.0306 258° West 331 381 40,000  Level Albuquerque Center
02:19PM 34.3750 -107.1594 259° West 327 376 40,000  Level Albuquerque Center
02:20PM 34.3564 -107.2664 258° West 326 375 40,000  Level Albuquerque Center
02:21PM 34.3369 -107.3758 258° West 329 379 40,000  Level Albuquerque Center
02:22PM 34.3183 -107.4844 258° West 330 380 40,000  Level Albuquerque Center
02:23PM 34.2989 -107.5842 257° West 329 379 40,000  Level Albuquerque Center
02:24PM 34.2753 -107.7119 257° West 327 376 40,000  Level Albuquerque Center
02:25PM 34.2553 -107.8214 258° West 332 382 40,000  Level Albuquerque Center
02:26PM 34.2361 -107.9289 258° West 330 380 40,000  Level Albuquerque Center
02:27PM 34.2161 -108.0375 257° West 331 381 40,000  Level Albuquerque Center
02:28PM 34.1956 -108.1556 258° West 332 382 40,000  Level Albuquerque Center
02:29PM 34.1761 -108.2633 258° West 333 383 40,000  Level Albuquerque Center
02:30PM 34.1558 -108.3719 257° West 334 384 40,000  Level Albuquerque Center
02:31PM 34.1358 -108.4781 257° West 330 380 40,000  Level Albuquerque Center
02:32PM 34.1114 -108.6094 257° West 336 387 40,000  Level Albuquerque Center
02:33PM 34.0911 -108.7183 257° West 336 387 40,000  Level Albuquerque Center
02:34PM 34.0714 -108.8281 258° West 337 388 40,000  Level Albuquerque Center
02:36PM 34.0519 -108.9358 258° West 336 387 40,000  Level Albuquerque Center
02:37PM 34.0308 -109.0417 256° West 332 382 40,000  Level Albuquerque Center
02:38PM 34.0106 -109.1489 257° West 332 382 40,000  Level Albuquerque Center
02:39PM 33.9850 -109.2786 257° West 335 386 40,000  Level Albuquerque Center
02:40PM 33.9647 -109.3864 257° West 334 384 40,000  Level Albuquerque Center
02:41PM 33.9439 -109.4922 257° West 332 382 40,000  Level Albuquerque Center
02:42PM 33.9228 -109.6003 257° West 334 384 40,000  Level Albuquerque Center
02:43PM 33.9017 -109.7061 257° West 332 382 40,000  Level Albuquerque Center
02:44PM 33.8767 -109.8356 257° West 333 383 40,000  Level Albuquerque Center
02:45PM 33.8556 -109.9433 257° West 334 384 40,000  Level Albuquerque Center
02:46PM 33.8289 -110.0486 253° West 335 386 40,000  Level Albuquerque Center
02:47PM 33.7867 -110.1594 245° Southwest 365 420 40,000  Level Albuquerque Center
02:48PM 33.7536 -110.2636 249° West 348 400 40,000  Level Albuquerque Center
02:49PM 33.7150 -110.3903 250° West 345 397 40,000  Level Albuquerque Center
02:50PM 33.6825 -110.4958 250° West 341 392 40,000  Level Albuquerque Center
02:51PM 33.6503 -110.6011 250° West 339 390 40,000  Level Albuquerque Center
02:52PM 33.6150 -110.7069 248° West 338 389 40,000  Level Albuquerque Center
02:53PM 33.5806 -110.8125 249° West 339 390 40,000  Level Albuquerque Center
02:54PM 33.5472 -110.9183 249° West 339 390 40,000  Level Albuquerque Center
02:55PM 33.5058 -111.0475 249° West 346 398 40,000  Level Albuquerque Center
02:56PM 33.4703 -111.1531 248° West 343 395 40,000  Level Albuquerque Center
02:57PM 33.4347 -111.2589 248° West 342 394 40,000  Level Albuquerque Center
02:58PM 33.3978 -111.3653 247° West 346 398 40,000  Level Albuquerque Center
02:59PM 33.3389 -111.4594 233° Southwest 351 404 40,000  Level Albuquerque Center
03:00PM 33.2772 -111.5511 231° Southwest 353 406 40,000  Level Albuquerque Center
03:01PM 33.2156 -111.6433 231° Southwest 355 409 40,000  Level Albuquerque Center
03:02PM 33.1417 -111.7544 232° Southwest 354 407 40,000  Level Albuquerque Center
03:03PM 33.0806 -111.8453 231° Southwest 351 404 40,000  Level Albuquerque Center
03:04PM 33.0189 -111.9372 231° Southwest 354 407 40,000  Level Albuquerque Center
03:05PM 32.9575 -112.0300 232° Southwest 355 409 40,000  Level Albuquerque Center
03:06PM 32.8983 -112.1217 232° Southwest 350 403 40,000  Level Albuquerque Center
03:07PM 32.8450 -112.2197 237° Southwest 350 403 40,000  Level Albuquerque Center
03:09PM 32.8289 -112.3328 260° West 338 389 40,000  Level Albuquerque Center
03:10PM 32.8619 -112.4619 287° West 340 391 40,000  Level Albuquerque Center
03:11PM 32.9069 -112.5633 298° West 347 399 40,000  Level Albuquerque Center
03:12PM 32.9433 -112.6703 292° West 350 403 40,000  Level Albuquerque Center
03:13PM 32.9425 -112.7833 270° West 349 402 40,000 -60 Level Albuquerque Center
03:14PM 32.9267 -112.8956 260° West 348 400 39,900 -780 Descending Albuquerque Center
03:15PM 32.9067 -113.0372 260° West 360 414 38,500 -1,200 Descending Albuquerque Center
03:16PM 32.8894 -113.1614 261° West 376 433 37,500 -960 Descending Albuquerque Center
03:17PM 32.8717 -113.2844 260° West 381 438 36,600 -960 Descending Albuquerque Center
03:18PM 32.8558 -113.4036 261° West 373 429 35,600 -1,020 Descending Albuquerque Center
03:19PM 32.8394 -113.5219 261° West 368 423 34,600 -780 Descending Albuquerque Center
03:20PM 32.8219 -113.6425 260° West 371 427 34,000 -300 Descending Albuquerque Center
03:21PM 32.8011 -113.7858 260° West 369 425 34,000  Level Albuquerque Center
03:22PM 32.7839 -113.9072 260° West 373 429 34,000 -480 Level Albuquerque Center
03:24PM 32.7719 -114.1539 267° West 377 434 32,600 -960 Descending Albuquerque Center
03:25PM 32.7742 -114.2808 271° West 384 442 31,100 -1,440 Descending Albuquerque Center
03:26PM 32.7692 -114.4067 267° West 384 442 29,700 -1,440 Descending Albuquerque Center
03:27PM 32.7675 -114.5514 269° West 387 445 28,100 -840 Descending Los Angeles Center
03:28PM 32.7650 -114.6769 269° West 381 438 28,000 -540 Descending Los Angeles Center
03:29PM 32.7619 -114.8292 269° West 386 444 27,000 -1,200 Descending Los Angeles Center
03:30PM 32.7581 -114.9594 268° West 394 453 25,600 -1,260 Descending Los Angeles Center
03:31PM 32.7586 -115.0775 270° West 361 415 24,400 -840 Descending Los Angeles Center
03:32PM 32.7544 -115.1953 268° West 357 411 23,900 -780 Descending Los Angeles Center
03:33PM 32.7514 -115.2978 268° West 315 362 22,800 -1,800 Descending Los Angeles Center
03:34PM 32.7492 -115.4064 269° West 327 376 20,200 -2,280 Descending Los Angeles Center
03:35PM 32.7458 -115.5331 268° West 321 369 18,200 -1,980 Descending Los Angeles Center
03:36PM 32.7489 -115.6375 272° West 317 365 16,100 -1,920 Descending Los Angeles Center
03:37PM 32.7533 -115.7392 273° West 312 359 14,300 -1,800 Descending Los Angeles Center
03:39PM 32.7542 -115.8378 271° West 303 349 12,500 -1,800 Descending Los Angeles Center
03:40PM 32.7569 -115.9375 272° West 302 348 10,600 -1,320 Descending Los Angeles Center
03:41PM 32.7589 -116.0361 271° West 300 345 9,800 -360 Descending Los Angeles Center
03:42PM 32.7619 -116.1608 272° West 310 357 9,900  Climbing Los Angeles Center
03:43PM 32.7639 -116.2589 271° West 302 348 9,900  Level Los Angeles Center
03:44PM 32.7550 -116.3553 264° West 292 336 9,900  Level Los Angeles Center
03:45PM 32.7392 -116.4508 259° West 291 335 9,900 -120 Level Los Angeles Center
03:46PM 32.7233 -116.5639 261° West 288 331 9,700 -720 Descending Los Angeles Center
03:47PM 32.7108 -116.6517 260° West 276 318 8,500 -1,140 Descending Los Angeles Center
03:48PM 32.7053 -116.7442 266° West 278 320 7,400 -1,200 Descending Los Angeles Center
03:49PM 32.6972 -116.8506 265° West 273 314 6,100 -1,500 Descending Los Angeles Center
03:50PM 32.6667 -116.9167 241° Southwest 244 281 4,500 -1,200 Descending Southern California TRACON
03:52PM 32.7000 -117.0500 287° West 176 203 2,600 -1,020 Descending Southern California TRACON
03:53PM 32.7167 -117.1000 292° West 161 185 1,600 -960 Descending Southern California TRACON
03:54PM 32.7167 -117.1500 270° West 129 148 700 -660 Descending Southern California TRACON
03:55PM 32.7328 -117.1881 297° West 125 144 100 -540 Descending Los Angeles Center
03:57PM 32.7333 -117.1833 281° West  Level FlightAware Approximate